createdAt,value
2018-08-16T00:00:26.434Z,93.90
2018-08-16T00:02:55.041Z,93.70
2018-08-16T00:05:23.583Z,93.60
2018-08-16T00:07:52.206Z,93.90
2018-08-16T00:10:20.597Z,93.70
2018-08-16T00:12:49.932Z,93.50
2018-08-16T00:15:19.454Z,93.80
2018-08-16T00:17:47.906Z,94.00
2018-08-16T00:20:16.439Z,93.60
2018-08-16T00:22:45.061Z,93.80
2018-08-16T00:25:14.300Z,94.30
2018-08-16T00:27:42.824Z,93.80
2018-08-16T00:30:15.707Z,93.80
2018-08-16T00:32:44.471Z,93.80
2018-08-16T00:35:12.963Z,93.80
2018-08-16T00:37:41.459Z,94.20
2018-08-16T00:40:12.108Z,94.20
2018-08-16T00:42:40.575Z,93.90
2018-08-16T00:45:09.706Z,93.80
2018-08-16T00:47:38.044Z,93.90
2018-08-16T00:50:08.234Z,94.40
2018-08-16T00:52:36.681Z,94.00
2018-08-16T00:55:05.899Z,94.00
2018-08-16T00:57:34.381Z,93.90
2018-08-16T01:00:02.796Z,94.00
2018-08-16T01:02:31.135Z,94.00
2018-08-16T01:04:59.532Z,94.20
2018-08-16T01:07:27.884Z,94.20
2018-08-16T01:09:56.385Z,94.20
2018-08-16T01:12:24.775Z,94.50
2018-08-16T01:14:53.187Z,94.30
2018-08-16T01:17:21.596Z,94.60
2018-08-16T01:19:49.966Z,94.40
2018-08-16T01:22:18.446Z,94.60
2018-08-16T01:24:46.883Z,94.70
2018-08-16T01:27:15.866Z,94.90
2018-08-16T01:29:50.934Z,94.80
2018-08-16T01:32:20.120Z,94.80
2018-08-16T01:34:48.710Z,94.80
2018-08-16T01:37:17.153Z,95.20
2018-08-16T01:39:45.589Z,95.20
2018-08-16T01:42:14.587Z,95.10
2018-08-16T01:44:43.131Z,95.10
2018-08-16T01:47:12.044Z,95.40
2018-08-16T01:49:40.664Z,95.50
2018-08-16T01:52:09.142Z,95.70
2018-08-16T01:54:37.906Z,95.60
2018-08-16T01:57:06.363Z,96.00
2018-08-16T01:59:35.045Z,96.00
2018-08-16T02:02:03.555Z,96.30
2018-08-16T02:04:32.030Z,96.60
2018-08-16T02:07:00.572Z,96.90
2018-08-16T02:09:29.004Z,96.80
2018-08-16T02:11:57.423Z,96.90
2018-08-16T02:14:26.687Z,97.00
2018-08-16T02:16:56.229Z,97.00
2018-08-16T02:19:25.121Z,97.00
2018-08-16T02:21:53.597Z,97.00
2018-08-16T02:24:22.040Z,97.00
2018-08-16T02:26:50.458Z,97.00
2018-08-16T02:29:26.093Z,97.00
2018-08-16T02:31:54.488Z,97.00
2018-08-16T02:34:22.920Z,97.00
2018-08-16T02:36:51.295Z,97.00
2018-08-16T02:39:19.659Z,97.00
2018-08-16T02:41:48.125Z,97.00
2018-08-16T02:44:16.528Z,97.00
2018-08-16T02:46:44.865Z,97.00
2018-08-16T02:49:13.215Z,97.00
2018-08-16T02:51:41.600Z,97.00
2018-08-16T02:54:09.955Z,97.00
2018-08-16T02:56:38.298Z,97.00
2018-08-16T02:59:06.665Z,97.00
2018-08-16T03:01:35.043Z,97.00
2018-08-16T03:04:03.392Z,97.00
2018-08-16T03:06:31.745Z,97.00
2018-08-16T03:09:00.053Z,97.00
2018-08-16T03:11:28.668Z,97.00
2018-08-16T03:13:57.016Z,97.00
2018-08-16T03:16:25.366Z,97.00
2018-08-16T03:18:53.832Z,97.00
2018-08-16T03:21:22.212Z,97.00
2018-08-16T03:23:50.548Z,97.00
2018-08-16T03:26:18.900Z,97.00
2018-08-16T03:28:47.251Z,97.00
2018-08-16T03:31:15.553Z,97.00
2018-08-16T03:33:43.912Z,97.00
2018-08-16T03:36:12.301Z,97.00
2018-08-16T03:38:40.684Z,97.00
2018-08-16T03:41:09.047Z,97.00
2018-08-16T03:43:37.386Z,97.00
2018-08-16T03:46:05.846Z,97.00
2018-08-16T03:48:34.377Z,97.00
2018-08-16T03:51:02.746Z,97.00
2018-08-16T03:53:31.099Z,97.00
2018-08-16T03:55:59.459Z,97.00
2018-08-16T03:58:27.826Z,97.00
2018-08-16T04:00:59.261Z,97.00
2018-08-16T04:03:33.666Z,97.00
2018-08-16T04:06:02.148Z,97.00
2018-08-16T04:08:31.948Z,97.00
2018-08-16T04:11:00.454Z,97.00
2018-08-16T04:13:28.883Z,97.00
2018-08-16T04:15:57.304Z,97.00
2018-08-16T04:18:25.765Z,97.00
2018-08-16T04:20:54.829Z,97.00
2018-08-16T04:23:23.356Z,97.00
2018-08-16T04:25:51.896Z,97.00
2018-08-16T04:28:20.389Z,97.00
2018-08-16T04:30:48.862Z,97.00
2018-08-16T04:33:17.375Z,97.00
2018-08-16T04:35:45.908Z,97.00
2018-08-16T04:38:14.720Z,97.00
2018-08-16T04:40:43.195Z,97.00
2018-08-16T04:43:11.686Z,97.00
2018-08-16T04:45:40.745Z,97.00
2018-08-16T04:48:09.307Z,97.00
2018-08-16T04:50:37.785Z,97.00
2018-08-16T04:53:07.001Z,97.00
2018-08-16T04:55:35.446Z,97.00
2018-08-16T04:58:03.909Z,97.00
2018-08-16T05:00:32.286Z,97.00
2018-08-16T05:03:00.730Z,97.00
2018-08-16T05:05:29.203Z,97.00
2018-08-16T05:07:59.512Z,97.00
2018-08-16T05:10:28.092Z,97.00
2018-08-16T05:12:56.603Z,97.00
2018-08-16T05:15:25.123Z,97.00
2018-08-16T05:17:53.504Z,97.00
2018-08-16T05:20:22.124Z,97.00
2018-08-16T05:22:50.502Z,97.00
2018-08-16T05:25:18.880Z,97.00
2018-08-16T05:27:47.317Z,97.00
2018-08-16T05:30:15.748Z,97.00
2018-08-16T05:32:44.305Z,97.00
2018-08-16T05:35:12.905Z,97.00
2018-08-16T05:37:42.252Z,97.00
2018-08-16T05:40:11.105Z,97.00
2018-08-16T05:42:40.147Z,97.00
2018-08-16T05:45:09.227Z,97.00
2018-08-16T05:47:37.916Z,97.00
2018-08-16T05:50:09.273Z,97.00
2018-08-16T05:52:37.697Z,97.00
2018-08-16T05:55:06.671Z,97.00
2018-08-16T05:57:35.148Z,97.00
2018-08-16T06:00:03.834Z,97.00
2018-08-16T06:02:32.285Z,97.00
2018-08-16T06:05:00.717Z,97.00
2018-08-16T06:07:29.192Z,97.00
2018-08-16T06:09:57.683Z,96.30
2018-08-16T06:12:26.205Z,96.00
2018-08-16T06:14:54.638Z,95.50
2018-08-16T06:17:23.071Z,95.40
2018-08-16T06:19:51.493Z,95.20
2018-08-16T06:22:20.140Z,94.80
2018-08-16T06:24:48.619Z,94.30
2018-08-16T06:27:16.977Z,93.70
2018-08-16T06:29:45.589Z,93.00
2018-08-16T06:32:14.235Z,92.80
2018-08-16T06:34:42.871Z,92.00
2018-08-16T06:37:11.335Z,91.20
2018-08-16T06:39:39.783Z,90.40
2018-08-16T06:42:08.322Z,89.60
2018-08-16T06:44:36.748Z,89.10
2018-08-16T06:47:05.180Z,88.70
2018-08-16T06:49:33.579Z,88.30
2018-08-16T06:52:02.072Z,88.60
2018-08-16T06:54:30.420Z,88.30
2018-08-16T06:56:58.809Z,87.60
2018-08-16T06:59:27.181Z,87.70
2018-08-16T07:01:55.588Z,86.50
2018-08-16T07:04:24.715Z,85.60
2018-08-16T07:06:53.087Z,85.30
2018-08-16T07:09:21.408Z,84.60
2018-08-16T07:11:49.868Z,83.60
2018-08-16T07:14:18.336Z,82.50
2018-08-16T07:16:46.700Z,82.10
2018-08-16T07:19:15.073Z,81.70
2018-08-16T07:21:43.461Z,81.40
2018-08-16T07:24:11.816Z,81.30
2018-08-16T07:26:40.168Z,82.20
2018-08-16T07:29:08.559Z,82.20
2018-08-16T07:31:36.953Z,82.40
2018-08-16T07:34:05.455Z,81.60
2018-08-16T07:36:33.785Z,81.10
2018-08-16T07:39:02.162Z,80.80
2018-08-16T07:41:30.516Z,80.20
2018-08-16T07:43:58.941Z,79.30
2018-08-16T07:46:27.416Z,79.10
2018-08-16T07:48:55.704Z,79.50
2018-08-16T07:51:24.370Z,79.50
2018-08-16T07:53:52.666Z,79.30
2018-08-16T07:56:21.069Z,79.10
2018-08-16T07:58:49.440Z,79.70
2018-08-16T08:01:17.863Z,80.00
2018-08-16T08:03:46.251Z,80.30
2018-08-16T08:06:14.645Z,79.60
2018-08-16T08:08:43.061Z,78.60
2018-08-16T08:11:11.491Z,78.40
2018-08-16T08:13:39.914Z,77.20
2018-08-16T08:16:08.292Z,76.80
2018-08-16T08:18:36.685Z,77.00
2018-08-16T08:21:08.184Z,77.70
2018-08-16T08:23:36.647Z,77.60
2018-08-16T08:26:05.179Z,77.80
2018-08-16T08:28:33.567Z,77.20
2018-08-16T08:31:02.000Z,77.00
2018-08-16T08:33:30.533Z,76.50
2018-08-16T08:36:10.177Z,76.60
2018-08-16T08:38:38.653Z,76.60
2018-08-16T08:41:07.016Z,75.80
2018-08-16T08:43:46.639Z,75.50
2018-08-16T08:46:15.021Z,74.20
2018-08-16T08:48:43.407Z,74.20
2018-08-16T08:51:11.810Z,75.00
2018-08-16T08:54:51.216Z,75.50
2018-08-16T08:57:31.707Z,75.90
2018-08-16T09:00:00.175Z,74.80
2018-08-16T09:02:28.649Z,74.10
2018-08-16T09:04:57.090Z,74.40
2018-08-16T09:07:25.802Z,74.00
2018-08-16T09:11:05.163Z,73.80
2018-08-16T09:13:45.101Z,73.90
2018-08-16T09:16:15.007Z,73.80
2018-08-16T09:18:43.408Z,73.50
2018-08-16T09:21:12.399Z,74.20
2018-08-16T09:23:40.823Z,73.80
2018-08-16T09:26:14.581Z,74.00
2018-08-16T09:28:42.965Z,74.20
2018-08-16T09:31:23.126Z,74.10
2018-08-16T09:34:02.782Z,74.60
2018-08-16T09:36:31.193Z,73.50
2018-08-16T09:38:59.772Z,73.10
2018-08-16T09:41:28.755Z,72.70
2018-08-16T09:43:57.139Z,72.20
2018-08-16T09:47:25.619Z,72.10
2018-08-16T09:49:53.955Z,71.70
2018-08-16T09:52:22.668Z,71.40
2018-08-16T09:54:51.165Z,71.10
2018-08-16T09:57:19.583Z,71.50
2018-08-16T09:59:47.994Z,71.00
2018-08-16T10:02:17.415Z,70.90
2018-08-16T10:04:45.666Z,70.80
2018-08-16T10:07:14.051Z,70.80
2018-08-16T10:09:42.461Z,70.40
2018-08-16T10:12:10.843Z,70.20
2018-08-16T10:14:39.172Z,70.70
2018-08-16T10:17:07.518Z,70.50
2018-08-16T10:19:35.879Z,70.60
2018-08-16T10:22:04.334Z,70.10
2018-08-16T10:24:32.694Z,70.00
2018-08-16T10:27:01.175Z,70.20
2018-08-16T10:29:29.484Z,69.70
2018-08-16T10:31:57.853Z,69.90
2018-08-16T10:34:26.286Z,69.20
2018-08-16T10:36:54.691Z,68.80
2018-08-16T10:39:23.084Z,69.10
2018-08-16T10:41:51.548Z,69.40
2018-08-16T10:44:20.072Z,68.80
2018-08-16T10:46:48.460Z,68.20
2018-08-16T10:49:16.885Z,68.70
2018-08-16T10:51:45.220Z,68.90
2018-08-16T10:54:13.608Z,68.60
2018-08-16T10:56:41.959Z,69.30
2018-08-16T10:59:10.981Z,69.30
2018-08-16T11:01:39.338Z,70.10
2018-08-16T11:04:07.789Z,69.50
2018-08-16T11:06:36.172Z,69.50
2018-08-16T11:09:07.724Z,69.10
2018-08-16T11:11:36.110Z,68.60
2018-08-16T11:14:04.527Z,67.60
2018-08-16T11:16:32.870Z,68.30
2018-08-16T11:19:01.343Z,67.90
2018-08-16T11:21:29.616Z,68.30
2018-08-16T11:23:57.988Z,68.40
2018-08-16T11:26:26.330Z,67.60
2018-08-16T11:28:54.713Z,67.40
2018-08-16T11:31:23.083Z,67.90
2018-08-16T11:33:51.463Z,67.90
2018-08-16T11:36:19.822Z,67.60
2018-08-16T11:38:48.230Z,67.40
2018-08-16T11:41:16.629Z,67.30
2018-08-16T11:43:45.088Z,67.10
2018-08-16T11:46:13.790Z,67.80
2018-08-16T11:48:42.392Z,67.80
2018-08-16T11:51:10.735Z,67.50
2018-08-16T11:53:39.099Z,66.40
2018-08-16T11:56:07.486Z,65.80
2018-08-16T11:58:35.898Z,65.90
2018-08-16T12:01:04.334Z,65.90
2018-08-16T12:03:32.677Z,66.60
2018-08-16T12:06:01.003Z,65.60
2018-08-16T12:08:29.378Z,64.40
2018-08-16T12:10:57.805Z,64.40
2018-08-16T12:13:26.282Z,64.70
2018-08-16T12:15:54.658Z,63.60
2018-08-16T12:18:23.027Z,63.30
2018-08-16T12:20:51.432Z,63.30
2018-08-16T12:23:19.778Z,63.20
2018-08-16T12:25:48.209Z,64.20
2018-08-16T12:28:16.595Z,64.20
2018-08-16T12:30:44.966Z,64.40
2018-08-16T12:33:13.345Z,64.50
2018-08-16T12:35:41.757Z,64.10
2018-08-16T12:38:10.135Z,64.30
2018-08-16T12:40:38.559Z,64.80
2018-08-16T12:43:06.968Z,64.30
2018-08-16T12:45:35.373Z,64.60
2018-08-16T12:48:03.763Z,63.80
2018-08-16T12:50:32.367Z,63.20
2018-08-16T12:53:00.699Z,63.80
2018-08-16T12:55:29.107Z,63.40
2018-08-16T12:57:57.563Z,62.60
2018-08-16T13:00:26.350Z,62.30
2018-08-16T13:02:54.794Z,61.60
2018-08-16T13:05:23.152Z,61.80
2018-08-16T13:07:51.635Z,61.60
2018-08-16T13:10:21.414Z,62.20
2018-08-16T13:12:49.867Z,62.70
2018-08-16T13:15:18.258Z,62.80
2018-08-16T13:17:46.844Z,62.50
2018-08-16T13:20:15.402Z,62.00
2018-08-16T13:22:43.772Z,61.40
2018-08-16T13:25:12.159Z,61.40
2018-08-16T13:27:40.605Z,61.60
2018-08-16T13:30:08.931Z,61.10
2018-08-16T13:32:37.514Z,61.10
2018-08-16T13:35:06.113Z,61.10
2018-08-16T13:37:34.575Z,61.20
2018-08-16T13:40:03.034Z,61.40
2018-08-16T13:42:31.943Z,62.10
2018-08-16T13:45:00.368Z,62.00
2018-08-16T13:47:28.785Z,62.30
2018-08-16T13:49:57.216Z,62.70
2018-08-16T13:52:26.148Z,62.90
2018-08-16T13:54:54.491Z,62.80
2018-08-16T13:57:22.910Z,63.50
2018-08-16T13:59:51.918Z,62.90
2018-08-16T14:02:20.261Z,62.90
2018-08-16T14:04:48.664Z,62.60
2018-08-16T14:07:17.018Z,62.70
2018-08-16T14:09:45.479Z,62.30
2018-08-16T14:12:13.866Z,62.60
2018-08-16T14:14:42.235Z,62.00
2018-08-16T14:17:10.575Z,62.90
2018-08-16T14:19:38.939Z,62.90
2018-08-16T14:22:07.595Z,63.00
2018-08-16T14:24:35.929Z,62.60
2018-08-16T14:27:04.392Z,62.50
2018-08-16T14:29:32.756Z,62.70
2018-08-16T14:32:01.114Z,62.30
2018-08-16T14:34:29.680Z,62.30
2018-08-16T14:36:58.043Z,62.20
2018-08-16T14:39:26.393Z,62.60
2018-08-16T14:41:54.737Z,62.60
2018-08-16T14:44:23.114Z,62.20
2018-08-16T14:46:51.475Z,62.10
2018-08-16T14:49:19.844Z,62.00
2018-08-16T14:51:48.208Z,61.70
2018-08-16T14:54:16.532Z,60.80
2018-08-16T14:56:44.990Z,60.80
2018-08-16T14:59:13.358Z,60.60
2018-08-16T15:01:41.948Z,61.00
2018-08-16T15:04:10.320Z,60.50
2018-08-16T15:06:38.709Z,60.50
2018-08-16T15:09:09.863Z,60.20
2018-08-16T15:11:38.231Z,60.30
2018-08-16T15:14:06.640Z,60.60
2018-08-16T15:16:35.119Z,60.50
2018-08-16T15:19:03.489Z,60.70
2018-08-16T15:21:31.901Z,61.60
2018-08-16T15:24:00.264Z,61.50
2018-08-16T15:26:28.650Z,62.10
2018-08-16T15:28:57.130Z,62.30
2018-08-16T15:31:25.529Z,61.90
2018-08-16T15:33:54.407Z,62.10
2018-08-16T15:36:22.791Z,62.40
2018-08-16T15:38:51.411Z,62.60
2018-08-16T15:41:19.836Z,62.50
2018-08-16T15:43:48.271Z,62.50
2018-08-16T15:46:16.605Z,62.10
2018-08-16T15:48:44.977Z,62.10
2018-08-16T15:51:13.386Z,62.00
2018-08-16T15:53:41.764Z,61.90
2018-08-16T15:56:10.143Z,62.10
2018-08-16T15:58:39.032Z,62.30
2018-08-16T16:01:07.628Z,62.70
2018-08-16T16:03:36.092Z,62.80
2018-08-16T16:06:04.638Z,63.20
2018-08-16T16:08:32.931Z,63.80
2018-08-16T16:11:01.322Z,64.90
2018-08-16T16:13:29.691Z,65.00
2018-08-16T16:15:58.196Z,64.70
2018-08-16T16:18:26.567Z,65.20
2018-08-16T16:20:55.021Z,65.30
2018-08-16T16:23:23.351Z,65.50
2018-08-16T16:25:51.749Z,65.90
2018-08-16T16:28:20.146Z,66.70
2018-08-16T16:30:48.921Z,67.70
2018-08-16T16:33:17.469Z,67.70
2018-08-16T16:35:45.936Z,67.00
2018-08-16T16:38:14.538Z,67.40
2018-08-16T16:40:43.973Z,67.70
2018-08-16T16:43:12.338Z,68.10
2018-08-16T16:45:41.767Z,68.50
2018-08-16T16:48:10.143Z,68.50
2018-08-16T16:50:38.500Z,68.70
2018-08-16T16:53:07.094Z,69.00
2018-08-16T16:55:35.381Z,69.00
2018-08-16T16:58:03.779Z,68.70
2018-08-16T17:00:32.207Z,69.50
2018-08-16T17:03:00.591Z,69.30
2018-08-16T17:05:28.966Z,69.40
2018-08-16T17:07:57.437Z,69.80
2018-08-16T17:10:25.863Z,69.50
2018-08-16T17:12:54.230Z,69.30
2018-08-16T17:15:22.588Z,69.80
2018-08-16T17:17:50.950Z,69.70
2018-08-16T17:20:19.346Z,70.00
2018-08-16T17:22:47.721Z,70.20
2018-08-16T17:25:16.097Z,70.60
2018-08-16T17:27:44.876Z,70.60
2018-08-16T17:30:13.791Z,70.90
2018-08-16T17:32:42.195Z,71.10
2018-08-16T17:35:10.660Z,71.50
2018-08-16T17:37:39.138Z,71.60
2018-08-16T17:40:07.613Z,71.50
2018-08-16T17:42:36.068Z,71.80
2018-08-16T17:45:04.559Z,71.90
2018-08-16T17:47:32.934Z,71.90
2018-08-16T17:50:01.303Z,72.00
2018-08-16T17:52:29.635Z,72.10
2018-08-16T17:54:59.920Z,72.40
2018-08-16T17:57:28.401Z,72.60
2018-08-16T17:59:56.961Z,72.80
2018-08-16T18:02:25.492Z,73.00
2018-08-16T18:04:53.992Z,73.30
2018-08-16T18:07:22.406Z,73.70
2018-08-16T18:09:51.732Z,73.80
2018-08-16T18:12:24.049Z,74.00
2018-08-16T18:14:52.576Z,74.10
2018-08-16T18:17:21.030Z,74.20
2018-08-16T18:19:49.406Z,74.50
2018-08-16T18:22:17.825Z,74.80
2018-08-16T18:24:46.252Z,75.10
2018-08-16T18:27:14.718Z,75.30
2018-08-16T18:29:43.151Z,76.00
2018-08-16T18:32:11.629Z,76.30
2018-08-16T18:34:40.083Z,76.60
2018-08-16T18:37:08.467Z,77.10
2018-08-16T18:39:51.513Z,77.50
2018-08-16T18:42:19.913Z,77.80
2018-08-16T18:44:48.277Z,78.30
2018-08-16T18:47:16.724Z,78.60
2018-08-16T18:49:45.109Z,78.80
2018-08-16T18:52:13.447Z,79.10
2018-08-16T18:54:41.812Z,79.80
2018-08-16T18:57:10.189Z,80.10
2018-08-16T18:59:38.575Z,80.30
2018-08-16T19:02:06.980Z,80.60
2018-08-16T19:04:35.367Z,80.90
2018-08-16T19:07:03.782Z,81.30
2018-08-16T19:09:32.226Z,81.40
2018-08-16T19:12:00.648Z,81.90
2018-08-16T19:14:28.984Z,82.30
2018-08-16T19:16:58.040Z,83.40
2018-08-16T19:19:26.451Z,84.00
2018-08-16T19:21:54.831Z,84.70
2018-08-16T19:24:23.148Z,85.00
2018-08-16T19:26:51.519Z,85.50
2018-08-16T19:29:19.998Z,85.80
2018-08-16T19:31:48.866Z,86.20
2018-08-16T19:34:18.631Z,86.50
2018-08-16T19:36:47.284Z,86.70
2018-08-16T19:39:15.759Z,87.00
2018-08-16T19:41:44.155Z,87.40
2018-08-16T19:44:12.612Z,87.70
2018-08-16T19:46:41.676Z,87.80
2018-08-16T19:49:10.314Z,88.30
2018-08-16T19:51:39.476Z,88.50
2018-08-16T19:54:07.922Z,88.40
2018-08-16T19:56:36.300Z,88.40
2018-08-16T19:59:09.181Z,88.80
2018-08-16T20:01:37.541Z,88.90
2018-08-16T20:04:08.254Z,89.20
2018-08-16T20:06:36.830Z,89.20
2018-08-16T20:09:08.402Z,89.60
2018-08-16T20:11:36.880Z,89.60
2018-08-16T20:14:05.330Z,89.90
2018-08-16T20:16:33.664Z,90.20
2018-08-16T20:19:02.116Z,90.20
2018-08-16T20:21:30.473Z,90.40
2018-08-16T20:23:59.019Z,90.70
2018-08-16T20:26:27.388Z,90.70
2018-08-16T20:28:55.743Z,90.80
2018-08-16T20:31:24.218Z,91.20
2018-08-16T20:33:53.237Z,91.10
2018-08-16T20:36:21.771Z,91.30
2018-08-16T20:38:50.474Z,91.70
2018-08-16T20:41:18.994Z,91.80
2018-08-16T20:43:47.770Z,92.10
2018-08-16T20:46:16.237Z,92.10
2018-08-16T20:48:44.630Z,92.50
2018-08-16T20:51:13.251Z,92.70
2018-08-16T20:53:41.756Z,93.00
2018-08-16T20:56:10.215Z,93.20
2018-08-16T20:58:38.855Z,93.60
2018-08-16T21:01:08.065Z,93.80
2018-08-16T21:03:36.522Z,94.10
2018-08-16T21:06:07.481Z,94.80
2018-08-16T21:08:35.840Z,95.00
2018-08-16T21:11:04.439Z,95.40
2018-08-16T21:13:32.829Z,95.40
2018-08-16T21:16:05.351Z,96.00
2018-08-16T21:18:33.776Z,96.50
2018-08-16T21:21:02.152Z,96.50
2018-08-16T21:23:30.495Z,96.50
2018-08-16T21:25:58.950Z,96.60
2018-08-16T21:28:27.367Z,96.80
2018-08-16T21:30:55.743Z,97.00
2018-08-16T21:33:24.105Z,96.80
2018-08-16T21:35:52.440Z,97.00
2018-08-16T21:38:21.513Z,96.80
2018-08-16T21:40:50.685Z,96.90
2018-08-16T21:43:19.034Z,97.00
2018-08-16T21:45:47.387Z,96.80
2018-08-16T21:48:15.735Z,97.00
2018-08-16T21:50:44.157Z,97.00
2018-08-16T21:53:12.577Z,97.00
2018-08-16T21:55:40.961Z,97.00
2018-08-16T21:58:09.491Z,97.00
2018-08-16T22:00:48.092Z,97.00
2018-08-16T22:03:18.090Z,97.00
2018-08-16T22:06:06.924Z,97.00
2018-08-16T22:08:46.006Z,97.00
2018-08-16T22:11:14.361Z,97.00
2018-08-16T22:13:42.752Z,97.00
2018-08-16T22:16:12.553Z,97.00
2018-08-16T22:18:40.883Z,97.00
2018-08-16T22:21:09.596Z,97.00
2018-08-16T22:23:38.024Z,97.00
2018-08-16T22:26:06.487Z,97.00
2018-08-16T22:28:34.859Z,97.00
2018-08-16T22:31:03.277Z,97.00
2018-08-16T22:33:31.877Z,97.00
2018-08-16T22:36:00.323Z,97.00
2018-08-16T22:38:28.709Z,97.00
2018-08-16T22:40:57.266Z,97.00
2018-08-16T22:43:25.647Z,97.00
2018-08-16T22:45:54.045Z,97.00
2018-08-16T22:48:22.350Z,97.00
2018-08-16T22:50:50.771Z,97.00
2018-08-16T22:53:19.186Z,97.00
2018-08-16T22:55:47.566Z,97.00
2018-08-16T22:58:18.125Z,97.00
2018-08-16T23:00:46.522Z,97.00
2018-08-16T23:03:14.929Z,97.00
2018-08-16T23:05:43.308Z,97.00
2018-08-16T23:08:11.692Z,97.00
2018-08-16T23:10:40.215Z,97.00
2018-08-16T23:13:08.624Z,97.00
2018-08-16T23:15:37.020Z,97.00
2018-08-16T23:18:05.438Z,97.00
2018-08-16T23:20:33.820Z,97.00
2018-08-16T23:23:02.164Z,97.00
2018-08-16T23:25:30.554Z,97.00
2018-08-16T23:27:58.933Z,97.00
2018-08-16T23:30:27.281Z,97.00
2018-08-16T23:32:55.624Z,97.00
2018-08-16T23:35:23.971Z,97.00
2018-08-16T23:37:52.325Z,97.00
2018-08-16T23:40:20.816Z,97.00
2018-08-16T23:42:49.259Z,97.00
2018-08-16T23:45:17.588Z,97.00
2018-08-16T23:47:57.068Z,97.00
2018-08-16T23:50:25.444Z,97.00
2018-08-16T23:52:53.915Z,97.00
2018-08-16T23:55:22.376Z,97.00
2018-08-16T23:57:50.754Z,97.00
